Terminal Aerodrome Forecast
Issued by NWS Key West, FL

Current Version | Previous Version | Text Only | Print | Product List | Glossary On
Versions: 1 2 3 4 5 6 7 8 9 10 11 12 13 14 15 16 17 18 19 20 21
000
FTUS42 KKEY 170200 AAB
TAFEYW
TAF AMD
KEYW 170244Z 1703/1724 05008KT P6SM VCSH BKN100
      TEMPO 1703/1706 TSRA SCT015CB BKN025
     FM171200 09010KT P6SM SCT025 OVC100=

USA.gov is the U.S. government's official web portal to all federal, state and local government web resources and services.